Sikuliaq — WDG7520 — position and weather

sailwx.info

Track history (hours):
 
Tides and Currents Weather Stations Pressure Air Temp Water Temp Dewpoint Dewpoint Depression Visibility Wind Speed Wind Dir Waves Ship Positions

Oceanographic research ship Sikuliaq (USA)

Owner: Mackay Communications, Raleigh, NC. More information available from US FCC via Universal Licensing System.

Last reported at 2017-Jun-26 18:00 UTC. Time now 2017-Jun-26 19:07 UTC.
Position N 64°42' W 169°48'.

Length 79 m; draft 5.5 m.

Type: Other ship. MMSI: 338417000.

Wind from 010 at 14 knots

Barometer 999.4 mb
Air temperature 5.1 ° C
Dewpoint 5.1 ° C
Water temperature 2.7 ° C

Date/timePositionNaut miles runAvg speedWind from/ knotsBaromVisibWave heightAir tempDewpointWater temp
2017-Jun-26 18:00N 64°42' W 169°48'3 2.6 010 / 14999.4 5.1 5.1 2.7
2017-Jun-26 17:00N 64°42' W 169°54'0 0.0 010 / 101000.4 5.5 5.5 3.1
2017-Jun-26 16:00N 64°42' W 169°54'0 0.0 050 / 91001.5 6.4 6.3 3.1
2017-Jun-26 15:00N 64°42' W 169°54'0 0.0 060 / 131002.3 6.0 3.2
2017-Jun-26 14:00N 64°42' W 169°54'10 9.8 070 / 121003.1 5.0 3.2
2017-Jun-26 13:00N 64°36' W 170°12'10 9.8 080 / 121003.4 4.8 3.8
2017-Jun-26 12:00N 64°30' W 170°30'1615.9 080 / 111004.0 5.0 3.7
2017-Jun-26 11:00N 64°18' W 170°54'10 9.9 100 / 101004.5 5.0 3.3
2017-Jun-26 10:00N 64°12' W 171°12'10 9.9 120 / 141004.7 5.2 4.5
2017-Jun-26 09:00N 64°06' W 171°30'1212.1 110 / 161004.4 6.1 6.8
2017-Jun-26 08:00N 64°00' W 171°54'10 9.9 120 / 181004.2 6.7 7.1
2017-Jun-26 07:00N 63°54' W 172°12'10 9.9 110 / 141004.5 6.7 7.1
2017-Jun-26 06:00N 63°48' W 172°30'7 6.6 100 / 121004.7 7.6 7.3
2017-Jun-26 05:00N 63°42' W 172°36'6 6.0 110 / 141005.1 7.3 7.0
2017-Jun-26 04:00N 63°36' W 172°36'0 0.0 120 / 161005.5 7.6 6.7
2017-Jun-26 03:00N 63°36' W 172°36'0 0.0 120 / 151006.0 7.1 6.4
2017-Jun-26 02:00N 63°36' W 172°36'0 0.0 120 / 141006.4 6.9 6.4
2017-Jun-26 01:00N 63°36' W 172°36'0 0.0 120 / 161007.0 6.8 6.4
2017-Jun-26 00:00N 63°36' W 172°36'7 6.6 130 / 181007.7 6.8 6.4
2017-Jun-25 23:00N 63°42' W 172°30'5 5.3 110 / 161008.0 7.1 6.7
2017-Jun-25 22:00N 63°42' W 172°18'1313.1 110 / 161008.9 7.1 6.8
2017-Jun-25 21:00N 63°54' W 172°06'3 2.6 090 / 161009.8 6.3 6.7
2017-Jun-25 20:00N 63°54' W 172°00'7 6.6 090 / 141010.4 6.4 6.9
2017-Jun-25 19:00N 64°00' W 171°54'3 2.6 100 / 141011.0 6.4 6.4 6.9
2017-Jun-25 18:00N 64°00' W 171°48'8 8.0 100 / 141011.4 6.2 6.2 6.6
2017-Jun-25 17:00N 64°06' W 171°36'3 2.6 110 / 161011.9 5.4 5.0
2017-Jun-25 16:00N 64°06' W 171°30'6 6.0 080 / 71012.6 4.7 4.2
2017-Jun-25 15:00N 64°12' W 171°30'10 9.9 110 / 131013.1 5.0 4.2
2017-Jun-25 14:00N 64°18' W 171°12'3 2.6 110 / 121013.7 3.9 3.3
2017-Jun-25 13:00N 64°18' W 171°06'7 6.5 120 / 121014.2 4.3 3.2
2017-Jun-25 12:00N 64°24' W 171°00'7 6.5 140 / 111014.7 4.7 3.6
2017-Jun-25 11:00N 64°30' W 170°54'8 7.9 150 / 131015.2 5.2 3.3
2017-Jun-25 10:00N 64°36' W 170°42'8 7.9 170 / 101015.7 5.2 3.6
2017-Jun-25 09:00N 64°42' W 170°30'3 2.6 160 / 91015.8 4.8 3.3
2017-Jun-25 08:00N 64°42' W 170°24'7 6.5 170 / 91016.1 4.4 3.2
2017-Jun-25 07:00N 64°48' W 170°18'5 5.1 190 / 111016.0 5.1 5.1 3.1
2017-Jun-25 06:00N 64°48' W 170°06'8 7.9 180 / 131015.9 5.1 5.0 3.1
2017-Jun-25 05:00N 64°54' W 169°54'3 2.5 190 / 131016.3 4.9 4.9 2.7
2017-Jun-25 04:00N 64°54' W 170°00'0 0.0 200 / 161016.3 5.3 5.3 2.9
2017-Jun-25 03:00N 64°54' W 170°00'7 6.5 200 / 121016.8 4.6 2.9
2017-Jun-25 02:00N 65°00' W 169°54'0 0.0 210 / 161017.1 4.6 2.8
2017-Jun-25 01:00N 65°00' W 169°54'0 0.0 210 / 161017.3 4.6 2.7
2017-Jun-25 00:00N 65°00' W 169°54'3 2.5 190 / 161017.4 4.6 2.7
2017-Jun-24 23:00N 65°00' W 169°48'8 7.6 180 / 211017.0 4.5 2.7
2017-Jun-24 22:00N 65°00' W 169°30'10 9.7 190 / 231017.4 4.5 2.8
2017-Jun-24 21:00N 64°54' W 169°12'6 6.0 200 / 61018.0 4.8 3.0
2017-Jun-24 20:00N 65°00' W 169°12'3 2.5 200 / 201017.8 4.2 3.2
2017-Jun-24 19:00N 65°00' W 169°06'8 7.6 200 / 211017.9 4.2 3.2
2017-Jun-24 18:00N 65°00' W 169°24'8 7.9 210 / 241017.1 4.0 3.0
2017-Jun-24 17:00N 65°06' W 169°36'8 7.8 200 / 231017.2 3.4 3.1
2017-Jun-24 16:00N 65°12' W 169°24'3 2.5 200 / 221017.0 3.9 3.2
2017-Jun-24 15:00N 65°12' W 169°18'7 6.5 200 / 221017.2 4.3 3.4
2017-Jun-24 14:00N 65°18' W 169°12'7 6.5 200 / 231017.2 4.5 3.4
2017-Jun-24 13:00N 65°24' W 169°06'8 7.8 200 / 221017.2 4.7 4.4 3.1
2017-Jun-24 12:00N 65°30' W 168°54'2 2.5 200 / 231017.0 4.4 2.8
2017-Jun-24 11:00N 65°30' W 168°48'2 2.5 210 / 251017.1 4.5 3.1
2017-Jun-24 10:00N 65°30' W 168°42'10 9.6 200 / 231016.9 4.3 4.3 3.3
2017-Jun-24 09:00N 65°36' W 168°24'5 5.0 190 / 271016.8 4.9 4.9 5.6
2017-Jun-24 08:00N 65°36' W 168°12'6 6.5 190 / 271017.4 5.4 5.4 8.5
2017-Jun-24 07:00N 65°42' W 168°18'2 2.5 200 / 251017.0 4.5 4.2
2017-Jun-24 06:00N 65°42' W 168°24'2 2.5 200 / 301016.6 4.5 3.7
2017-Jun-24 05:00N 65°42' W 168°30'2 2.5 200 / 281016.9 4.2 3.7
2017-Jun-24 04:00N 65°42' W 168°36'6 6.5 190 / 281017.0 4.2 3.9
2017-Jun-24 03:00N 65°48' W 168°42'2 2.5 200 / 261017.1 4.0 3.4
2017-Jun-24 02:00N 65°48' W 168°48'2 2.5 210 / 321016.1 3.9 3.1
2017-Jun-24 01:00N 65°48' W 168°54'6 6.0 200 / 261016.8 3.9 3.0
2017-Jun-24 00:00N 65°54' W 168°54'6 6.5 210 / 301016.9 5.4 3.3
2017-Jun-23 23:00N 66°00' W 169°00'6 6.0 210 / 281016.6 4.3 3.1
2017-Jun-23 22:00N 66°06' W 169°00'6 6.0 210 / 351015.5 4.2 3.2
2017-Jun-23 21:00N 66°12' W 169°00'6 6.0 200 / 301015.8 4.5 3.2
2017-Jun-23 20:00N 66°18' W 169°00'7 7.2 200 / 281015.6 4.7 4.4
2017-Jun-23 19:00N 66°18' W 168°42'10 9.6 190 / 301015.6 4.5 3.4
2017-Jun-23 18:00N 66°18' W 168°18'7 7.2 190 / 291016.6 4.5 4.2
2017-Jun-23 17:00N 66°18' W 168°00'1111.3 190 / 281017.2 4.2 3.1
2017-Jun-23 16:00N 66°24' W 167°36'7 7.2 180 / 251017.8 5.1 3.6
2017-Jun-23 15:00N 66°24' W 167°18'10 9.6 200 / 251018.5 5.4 3.3
2017-Jun-23 14:00N 66°24' W 166°54'7 7.2 200 / 261019.1 5.8 5.8 5.7
2017-Jun-23 13:00N 66°24' W 166°36'7 7.2 210 / 301019.3 6.0 6.0 6.0
2017-Jun-23 12:00N 66°24' W 166°18'9 9.4 210 / 311019.2 6.1 5.9 5.8
2017-Jun-23 11:00N 66°30' W 166°00'10 9.6 220 / 231020.0 6.2 6.2 5.5
2017-Jun-23 10:00N 66°30' W 165°36'0 0.0 200 / 241020.2 7.1 6.5 5.3
2017-Jun-23 09:00N 66°30' W 165°36'10 9.6 210 / 241020.5 7.4 6.3 5.4
2017-Jun-23 08:00N 66°30' W 166°00'7 7.2 210 / 211020.2 6.9 6.7 5.4
2017-Jun-23 07:00N 66°30' W 166°18'2 2.4 210 / 281020.0 6.9 6.9 6.0
2017-Jun-23 06:00N 66°30' W 166°24'10 9.6 210 / 231020.2 6.7 6.7 5.7
2017-Jun-23 05:00N 66°30' W 166°48'7 7.2 200 / 321019.7 7.1 7.9
2017-Jun-23 04:00N 66°30' W 167°06'5 4.8 200 / 271019.9 6.4 6.4
2017-Jun-23 03:00N 66°30' W 167°18'5 4.8 190 / 241020.4 5.7 4.3
2017-Jun-23 02:00N 66°30' W 167°30'5 4.8 190 / 231020.3 4.8 3.1
2017-Jun-23 01:00N 66°30' W 167°42'2 2.4 190 / 231020.7 5.2 3.2
2017-Jun-23 00:00N 66°30' W 167°48'7 7.2 190 / 281020.6 4.9 3.1
2017-Jun-22 23:00N 66°30' W 168°06'0 0.0 180 / 231020.8 4.3 3.5
2017-Jun-22 22:00N 66°30' W 168°06'10 9.6 190 / 271020.8 4.2 3.5
2017-Jun-22 21:00N 66°30' W 168°30'0 0.0 180 / 211021.1 4.2 3.7
2017-Jun-22 20:00N 66°30' W 168°30'0 0.0 190 / 211021.2 4.3 3.5
2017-Jun-22 19:00N 66°30' W 168°30'10 9.6 190 / 221021.3 4.4 3.8
2017-Jun-22 18:00N 66°30' W 168°54'2 2.4 190 / 261020.9 4.5 3.9
2017-Jun-22 17:00N 66°30' W 169°00'6 6.0 190 / 201021.2 4.6 4.0
2017-Jun-22 16:00N 66°36' W 169°00'6 6.0 190 / 221021.0 4.5 3.8
2017-Jun-22 15:00N 66°42' W 169°00'6 6.5 190 / 201020.8 4.3 3.1
2017-Jun-22 14:00N 66°48' W 168°54'1212.0 200 / 201020.9 4.3 3.1
2017-Jun-22 13:00N 67°00' W 168°54'0 0.0 190 / 211020.9 4.1 3.4
2017-Jun-22 12:00N 67°00' W 168°54'9 9.4 180 / 251020.3 4.2 3.7
2017-Jun-22 11:00N 67°00' W 168°30'0 0.0 200 / 251021.1 4.0 3.2
2017-Jun-22 10:00N 67°00' W 168°30'8 7.6 200 / 261021.1 3.6 3.5
2017-Jun-22 09:00N 67°06' W 168°18'7 7.0 200 / 251020.2 3.4-0.9 2.7
2017-Jun-22 08:00N 67°06' W 168°00'2 2.3 210 / 241020.6 3.5 3.0
2017-Jun-22 07:00N 67°06' W 167°54'9 9.2 200 / 241019.8 3.8 4.4
2017-Jun-22 06:00N 67°12' W 167°36'2 2.3 210 / 221019.7 5.1 5.5
2017-Jun-22 05:00N 67°12' W 167°30'7 7.0 190 / 241019.2 5.2 5.0
2017-Jun-22 04:00N 67°12' W 167°12'0 0.0 200 / 211020.0 4.6 2.7
2017-Jun-22 03:00N 67°12' W 167°12'2 2.3 210 / 221019.5 4.7 2.9
2017-Jun-22 02:00N 67°12' W 167°06'9 9.2 210 / 181019.8 4.6 2.8
2017-Jun-22 01:00N 67°18' W 166°48'2 2.3 200 / 151019.8 4.2 3.7
2017-Jun-22 00:00N 67°18' W 166°42'5 4.6 210 / 201019.4 4.9 4.5
2017-Jun-21 23:00N 67°18' W 166°30'7 6.9 200 / 211019.2 4.6 4.4
2017-Jun-21 22:00N 67°18' W 166°12'6 6.4 210 / 151019.3 5.0 4.9
2017-Jun-21 21:00N 67°24' W 166°06'7 6.9 210 / 221018.3 5.2 5.0
2017-Jun-21 20:00N 67°24' W 165°48'0 0.0 210 / 191018.4 5.1 4.7
2017-Jun-21 19:00N 67°24' W 165°48'0 0.0 220 / 181017.8 4.8 4.3
2017-Jun-21 18:00N 67°24' W 165°48'5 4.6 220 / 211017.2 4.6 4.1
2017-Jun-21 17:00N 67°24' W 165°36'9 9.1 220 / 231016.4 4.3 3.9
2017-Jun-21 16:00N 67°30' W 165°18'2 2.3 220 / 161016.0 4.6 5.8
2017-Jun-21 15:00N 67°30' W 165°12'7 6.9 220 / 201015.1 4.9 5.2
2017-Jun-21 14:00N 67°30' W 164°54'0 0.0 220 / 201014.9 5.0 5.2
2017-Jun-21 13:00N 67°30' W 164°54'1111.0 200 / 241013.4 5.9 5.6
2017-Jun-21 12:00N 67°36' W 164°30'2 2.3 180 / 191013.4 6.5 4.8
2017-Jun-21 11:00N 67°36' W 164°24'9 9.1 150 / 141013.3 6.4 4.3
2017-Jun-21 10:00N 67°36' W 164°48'1111.4 150 / 91012.7 6.3 5.3
2017-Jun-21 09:00N 67°36' W 165°18'1110.9 190 / 171011.6 6.3 5.3
2017-Jun-21 08:00N 67°42' W 165°42'9 9.1 190 / 151010.7 5.8 5.6
2017-Jun-21 07:00N 67°48' W 166°00'9 9.1 200 / 181009.8 5.0 5.6
2017-Jun-21 06:00N 67°54' W 166°18'9 9.0 190 / 171009.4 4.6 5.4
2017-Jun-21 05:00N 68°00' W 166°36'1312.8 190 / 131008.8 4.8 5.5
2017-Jun-21 04:00N 68°12' W 166°48'6 6.4 160 / 91008.0 4.2 3.8
2017-Jun-21 03:00N 68°18' W 166°54'0 0.0 180 / 121007.5 4.5 6.1
2017-Jun-21 02:00N 68°18' W 166°54'7 7.5 180 / 141007.4 4.7 6.2
2017-Jun-21 01:00N 68°12' W 167°06'4 4.5 170 / 71007.2 4.3 1.1
2017-Jun-21 00:00N 68°12' W 167°18'2 2.2 160 / 131006.9 5.2 6.3
2017-Jun-20 23:00N 68°12' W 167°24'6 6.4 160 / 151006.5 5.0 6.1
2017-Jun-20 22:00N 68°06' W 167°30'9 9.0 170 / 31006.3 5.7 5.5
2017-Jun-20 21:00N 68°00' W 167°48'2 2.2 140 / 121006.0 4.4 4.4
2017-Jun-20 20:00N 68°00' W 167°54'8 7.5 140 / 31005.7 4.5 4.1
2017-Jun-20 19:00N 67°54' W 168°06'2 2.3 130 / 81005.4 3.9 3.7
2017-Jun-20 18:00N 67°54' W 168°12'0 0.0 130 / 71005.2 4.2 3.6
2017-Jun-20 17:00N 67°54' W 168°12'9 9.1 120 / 81005.1 4.0 3.6
2017-Jun-20 16:00N 67°48' W 168°30'1110.9 120 / 91004.9 4.0 3.9
2017-Jun-20 15:00N 67°42' W 168°54'0 0.0 140 / 131004.4 3.5 3.8
2017-Jun-20 14:00N 67°42' W 168°54'9 9.1
2017-Jun-20 13:00N 67°48' W 168°36'9 9.1 150 / 111004.9 3.9 3.8
2017-Jun-20 12:00N 67°54' W 168°18'2 2.3 110 / 81005.4 3.7 3.7
2017-Jun-20 11:00N 67°54' W 168°12'9 9.1 120 / 71005.6 3.8 3.6
2017-Jun-20 10:00N 67°48' W 168°30'2 2.3 150 / 91005.5 3.8 3.8
2017-Jun-20 09:00N 67°48' W 168°36'8 7.5 120 / 71005.3 4.0 3.7
2017-Jun-20 08:00N 67°42' W 168°48'5 4.6 130 / 91005.4 3.8 3.8
2017-Jun-20 07:00N 67°42' W 169°00'6 6.0 140 / 61005.4 3.9 3.8
2017-Jun-20 06:00N 67°48' W 169°00'6 6.4 110 / 71005.5 3.8 3.9
2017-Jun-20 05:00N 67°54' W 168°54'6 6.4 100 / 101005.7 3.8 3.5
2017-Jun-20 04:00N 68°00' W 169°00'6 6.0 120 / 101006.1 3.7 3.3
2017-Jun-20 03:00N 68°06' W 169°00'1212.0 090 / 141006.3 3.8 3.4
2017-Jun-20 02:00N 68°18' W 169°00'0 0.0 100 / 121007.1 4.3 3.6
2017-Jun-20 01:00N 68°18' W 169°00'1212.0 090 / 101007.5 4.3 3.7
2017-Jun-20 00:00N 68°30' W 169°00'12 6.0 080 / 131008.0 4.4 5.2
2017-Jun-19 22:00N 68°42' W 169°00'6 6.4 090 / 151008.5 3.9 4.9
2017-Jun-19 21:00N 68°48' W 168°54'6 6.0 100 / 141008.9 3.9 3.9 5.2
2017-Jun-19 20:00N 68°54' W 168°54'6 6.0 090 / 121009.3 3.4 5.1
2017-Jun-19 19:00N 69°00' W 168°54'4 4.3 100 / 21009.4 4.2 3.9 6.2
2017-Jun-19 18:00N 69°00' W 168°42'6 6.5 110 / 41009.7 2.3 5.3
2017-Jun-19 17:00N 69°00' W 168°24'2 2.2 130 / 41010.0 2.1 5.3
2017-Jun-19 16:00N 69°00' W 168°18'9 8.6 130 / 81009.9 2.2 4.4
2017-Jun-19 15:00N 69°00' W 167°54'0 0.0 110 / 71009.9 3.1 4.7
2017-Jun-19 14:00N 69°00' W 167°54'9 8.6 080 / 111010.2 2.9 4.8
2017-Jun-19 13:00N 69°00' W 167°30'2 2.2 050 / 51010.4 2.5 2.6
2017-Jun-19 12:00N 69°00' W 167°24'6 6.5 060 / 71010.7 2.7 2.3
2017-Jun-19 11:00N 69°00' W 167°06'7 7.4 050 / 81010.9 2.6 2.5
2017-Jun-19 10:00N 68°54' W 166°54'1110.8 050 / 61011.0 2.7 3.1
2017-Jun-19 09:00N 68°54' W 166°24'0 0.0 050 / 121010.8 2.7 2.9
2017-Jun-19 08:00N 68°54' W 166°24'6 6.4 050 / 71011.1 2.5 2.9
2017-Jun-19 07:00N 68°48' W 166°30'7 6.5 090 / 31011.1 2.5 2.1
2017-Jun-19 06:00N 68°48' W 166°48'0 0.0 160 / 31011.0 2.6 3.3
2017-Jun-19 05:00N 68°48' W 166°48'9 8.8 170 / 51011.1 2.8 3.6
2017-Jun-19 04:00N 68°54' W 166°30'0 0.0 100 / 61011.3 2.7 2.8
2017-Jun-19 03:00N 68°54' W 166°30'2 2.2 110 / 101011.2 2.7 1.7
2017-Jun-19 02:00N 68°54' W 166°24'0 0.0 100 / 101011.1 2.7 2.6 2.8
2017-Jun-19 01:00N 68°54' W 166°24'4 4.3 060 / 111011.1 2.5 2.4 2.0
2017-Jun-19 00:00N 68°54' W 166°36'9 8.8 070 / 81011.2 2.1 3.4
2017-Jun-18 23:00N 69°00' W 166°54'6 6.0 060 / 61011.3 1.8 0.9 2.7
2017-Jun-18 22:00N 68°54' W 166°54'0 0.0 030 / 51011.3 1.8 0.8 2.5
2017-Jun-18 21:00N 68°54' W 166°54'0 0.0 050 / 51010.9 1.8 0.8 2.5
2017-Jun-18 20:00N 68°54' W 166°54'0 0.0 050 / 51010.7 1.8 0.5 2.5
2017-Jun-18 19:00N 68°54' W 166°54'0 0.0 030 / 71010.4 1.6 0.2 2.7
2017-Jun-18 18:00N 68°54' W 166°54'6 6.0 030 / 71010.1 1.6 0.5 2.6
2017-Jun-18 17:00N 69°00' W 166°54'9 8.8 060 / 71010.0 1.4 1.4 2.8
2017-Jun-18 16:00N 69°06' W 166°36'0 0.0 030 / 71009.9 1.0 2.1
2017-Jun-18 15:00N 69°06' W 166°36'1212.2 040 / 81009.8 0.9 0.9 3.0
2017-Jun-18 14:00N 69°18' W 166°42'0 0.0 050 / 81009.8 0.9 0.4 1.7
2017-Jun-18 13:00N 69°18' W 166°42'6 6.4 050 / 81009.8 1.1 1.9
2017-Jun-18 12:00N 69°24' W 166°48'1212.2 020 / 101009.7 1.1 3.4
2017-Jun-18 11:00N 69°36' W 166°54'6 6.4 050 / 111009.8 1.3 4.5
2017-Jun-18 10:00N 69°42' W 167°00'6 6.3 040 / 121009.9 1.4 5.0
2017-Jun-18 09:00N 69°48' W 167°06'6 6.3 040 / 121010.0 1.3 4.2
2017-Jun-18 08:00N 69°42' W 167°12'6 6.4 020 / 141009.9 1.4 4.3
2017-Jun-18 07:00N 69°36' W 167°18'1312.7 020 / 151009.9 1.6 4.5
2017-Jun-18 06:00N 69°24' W 167°30'7 7.3 010 / 141009.8 1.7 3.5
2017-Jun-18 05:00N 69°18' W 167°42'1212.2 020 / 151009.8 2.1 2.1 4.3
2017-Jun-18 04:00N 69°06' W 167°48'6 6.4 020 / 141009.9 2.4 2.3 4.7
2017-Jun-18 03:00N 69°00' W 167°54'2 2.2 020 / 161009.9 2.3 5.1
2017-Jun-18 02:00N 69°00' W 168°00'9 8.6 010 / 181009.5 2.2 2.2 5.2
2017-Jun-18 01:00N 69°00' W 168°24'9 8.8 010 / 211009.6 2.7 2.5 5.5
2017-Jun-18 00:00N 69°06' W 168°42'4 4.3 010 / 211009.8 2.2 6.0
2017-Jun-17 23:00N 69°06' W 168°54'6 6.0 010 / 171010.0 2.4 2.4 6.1
2017-Jun-17 22:00N 69°00' W 168°54'0 0.0 010 / 191009.8 2.3 6.2
2017-Jun-17 21:00N 69°00' W 168°54'0 0.0 020 / 191009.6 2.0 6.2
2017-Jun-17 20:00N 69°00' W 168°54'0 0.0 030 / 231009.1 2.2 6.3
2017-Jun-17 19:00N 69°00' W 168°54'0 0.0 030 / 231008.9 2.2 2.1 6.3
2017-Jun-17 18:00N 69°00' W 168°54'0 0.0 030 / 211008.5 1.8 6.3
2017-Jun-17 17:00N 69°00' W 168°54'0 0.0 040 / 191008.3 1.7 5.9
2017-Jun-17 16:00N 69°00' W 168°54'0 0.0 050 / 221008.0 1.9 5.6
2017-Jun-17 15:00N 69°00' W 168°54'0 0.0 040 / 231007.8 1.9 5.7
2017-Jun-17 14:00N 69°00' W 168°54'4 4.3 040 / 221007.5 1.7 5.7
2017-Jun-17 13:00N 69°00' W 168°42'7 7.4 040 / 271006.2 2.0 6.4
2017-Jun-17 12:00N 68°54' W 168°30'7 7.4 060 / 281005.7 2.0 6.6
2017-Jun-17 11:00N 68°48' W 168°18'2 2.2 040 / 281004.8 1.8 6.9
2017-Jun-17 10:00N 68°48' W 168°12'7 7.4 040 / 281004.3 1.5 6.4
2017-Jun-17 09:00N 68°42' W 168°00'7 7.4 040 / 271003.5 1.6 5.0
2017-Jun-17 08:00N 68°36' W 167°48'7 7.4 030 / 231002.9 2.5 6.6
2017-Jun-17 07:00N 68°30' W 167°36'2 2.2 030 / 261001.7 3.3 3.3 6.7
2017-Jun-17 06:00N 68°30' W 167°30'9 8.9 040 / 291000.4 4.0 4.0 5.6
2017-Jun-17 05:00N 68°24' W 167°12'6 6.4 030 / 25999.7 4.5 4.4 5.5
2017-Jun-17 04:00N 68°18' W 167°06'2 2.2 030 / 13999.8 4.6 4.5 6.1
2017-Jun-17 03:00N 68°18' W 167°00'1110.7 330 / 14999.6 5.3 5.2 6.1
2017-Jun-17 02:00N 68°12' W 167°24'0 0.0 320 / 161000.1 5.0 5.0 6.8
2017-Jun-17 01:00N 68°12' W 167°24'6 6.4 310 / 131000.6 4.4 6.4
2017-Jun-17 00:00N 68°06' W 167°30'6 6.4 290 / 111000.8 6.0 5.4
2017-Jun-16 23:00N 68°12' W 167°24'2 2.2 290 / 181000.6 5.6 5.2
2017-Jun-16 22:00N 68°12' W 167°18'0 0.0 290 / 141000.4 5.6 7.2
2017-Jun-16 21:00N 68°12' W 167°18'0 0.0 300 / 141000.7 5.0 5.0
2017-Jun-16 20:00N 68°12' W 167°18'0 0.0 300 / 151000.5 5.1 6.7
2017-Jun-16 19:00N 68°12' W 167°18'0 0.0 280 / 111000.5 5.8 5.9
2017-Jun-16 18:00N 68°12' W 167°18'   320 / 61000.6 6.6 5.9
Track history (hours):
 
Tides and Currents Weather Stations Pressure Air Temp Water Temp Dewpoint Dewpoint Depression Visibility Wind Speed Wind Dir Waves Ship Positions

Oceanographic research ship Sikuliaq (USA)

Owner: Mackay Communications, Raleigh, NC. More information available from US FCC via Universal Licensing System.

Last reported at 2017-Jun-26 18:00 UTC. Time now 2017-Jun-26 19:07 UTC.
Position N 64°42' W 169°48'.

Length 79 m; draft 5.5 m.

Type: Other ship. MMSI: 338417000.

Wind from 010 at 14 knots

Barometer 999.4 mb
Air temperature 5.1 ° C
Dewpoint 5.1 ° C
Water temperature 2.7 ° C

Date/timePositionNaut miles runAvg speedWind from/ knotsBaromVisibWave heightAir tempDewpointWater temp
2017-Jun-26 18:00N 64°42' W 169°48'3 2.6 010 / 14999.4 5.1 5.1 2.7
2017-Jun-26 17:00N 64°42' W 169°54'0 0.0 010 / 101000.4 5.5 5.5 3.1
2017-Jun-26 16:00N 64°42' W 169°54'0 0.0 050 / 91001.5 6.4 6.3 3.1
2017-Jun-26 15:00N 64°42' W 169°54'0 0.0 060 / 131002.3 6.0 3.2
2017-Jun-26 14:00N 64°42' W 169°54'10 9.8 070 / 121003.1 5.0 3.2
2017-Jun-26 13:00N 64°36' W 170°12'10 9.8 080 / 121003.4 4.8 3.8
2017-Jun-26 12:00N 64°30' W 170°30'1615.9 080 / 111004.0 5.0 3.7
2017-Jun-26 11:00N 64°18' W 170°54'10 9.9 100 / 101004.5 5.0 3.3
2017-Jun-26 10:00N 64°12' W 171°12'10 9.9 120 / 141004.7 5.2 4.5
2017-Jun-26 09:00N 64°06' W 171°30'1212.1 110 / 161004.4 6.1 6.8
2017-Jun-26 08:00N 64°00' W 171°54'10 9.9 120 / 181004.2 6.7 7.1
2017-Jun-26 07:00N 63°54' W 172°12'10 9.9 110 / 141004.5 6.7 7.1
2017-Jun-26 06:00N 63°48' W 172°30'7 6.6 100 / 121004.7 7.6 7.3
2017-Jun-26 05:00N 63°42' W 172°36'6 6.0 110 / 141005.1 7.3 7.0
2017-Jun-26 04:00N 63°36' W 172°36'0 0.0 120 / 161005.5 7.6 6.7
2017-Jun-26 03:00N 63°36' W 172°36'0 0.0 120 / 151006.0 7.1 6.4
2017-Jun-26 02:00N 63°36' W 172°36'0 0.0 120 / 141006.4 6.9 6.4
2017-Jun-26 01:00N 63°36' W 172°36'0 0.0 120 / 161007.0 6.8 6.4
2017-Jun-26 00:00N 63°36' W 172°36'7 6.6 130 / 181007.7 6.8 6.4
2017-Jun-25 23:00N 63°42' W 172°30'5 5.3 110 / 161008.0 7.1 6.7
2017-Jun-25 22:00N 63°42' W 172°18'1313.1 110 / 161008.9 7.1 6.8
2017-Jun-25 21:00N 63°54' W 172°06'3 2.6 090 / 161009.8 6.3 6.7
2017-Jun-25 20:00N 63°54' W 172°00'7 6.6 090 / 141010.4 6.4 6.9
2017-Jun-25 19:00N 64°00' W 171°54'3 2.6 100 / 141011.0 6.4 6.4 6.9
2017-Jun-25 18:00N 64°00' W 171°48'8 8.0 100 / 141011.4 6.2 6.2 6.6
2017-Jun-25 17:00N 64°06' W 171°36'3 2.6 110 / 161011.9 5.4 5.0
2017-Jun-25 16:00N 64°06' W 171°30'6 6.0 080 / 71012.6 4.7 4.2
2017-Jun-25 15:00N 64°12' W 171°30'10 9.9 110 / 131013.1 5.0 4.2
2017-Jun-25 14:00N 64°18' W 171°12'3 2.6 110 / 121013.7 3.9 3.3
2017-Jun-25 13:00N 64°18' W 171°06'7 6.5 120 / 121014.2 4.3 3.2
2017-Jun-25 12:00N 64°24' W 171°00'7 6.5 140 / 111014.7 4.7 3.6
2017-Jun-25 11:00N 64°30' W 170°54'8 7.9 150 / 131015.2 5.2 3.3
2017-Jun-25 10:00N 64°36' W 170°42'8 7.9 170 / 101015.7 5.2 3.6
2017-Jun-25 09:00N 64°42' W 170°30'3 2.6 160 / 91015.8 4.8 3.3
2017-Jun-25 08:00N 64°42' W 170°24'7 6.5 170 / 91016.1 4.4 3.2
2017-Jun-25 07:00N 64°48' W 170°18'5 5.1 190 / 111016.0 5.1 5.1 3.1
2017-Jun-25 06:00N 64°48' W 170°06'8 7.9 180 / 131015.9 5.1 5.0 3.1
2017-Jun-25 05:00N 64°54' W 169°54'3 2.5 190 / 131016.3 4.9 4.9 2.7
2017-Jun-25 04:00N 64°54' W 170°00'0 0.0 200 / 161016.3 5.3 5.3 2.9
2017-Jun-25 03:00N 64°54' W 170°00'7 6.5 200 / 121016.8 4.6 2.9
2017-Jun-25 02:00N 65°00' W 169°54'0 0.0 210 / 161017.1 4.6 2.8
2017-Jun-25 01:00N 65°00' W 169°54'0 0.0 210 / 161017.3 4.6 2.7
2017-Jun-25 00:00N 65°00' W 169°54'3 2.5 190 / 161017.4 4.6 2.7
2017-Jun-24 23:00N 65°00' W 169°48'8 7.6 180 / 211017.0 4.5 2.7
2017-Jun-24 22:00N 65°00' W 169°30'10 9.7 190 / 231017.4 4.5 2.8
2017-Jun-24 21:00N 64°54' W 169°12'6 6.0 200 / 61018.0 4.8 3.0
2017-Jun-24 20:00N 65°00' W 169°12'3 2.5 200 / 201017.8 4.2 3.2
2017-Jun-24 19:00N 65°00' W 169°06'8 7.6 200 / 211017.9 4.2 3.2
2017-Jun-24 18:00N 65°00' W 169°24'8 7.9 210 / 241017.1 4.0 3.0
2017-Jun-24 17:00N 65°06' W 169°36'8 7.8 200 / 231017.2 3.4 3.1
2017-Jun-24 16:00N 65°12' W 169°24'3 2.5 200 / 221017.0 3.9 3.2
2017-Jun-24 15:00N 65°12' W 169°18'7 6.5 200 / 221017.2 4.3 3.4
2017-Jun-24 14:00N 65°18' W 169°12'7 6.5 200 / 231017.2 4.5 3.4
2017-Jun-24 13:00N 65°24' W 169°06'8 7.8 200 / 221017.2 4.7 4.4 3.1
2017-Jun-24 12:00N 65°30' W 168°54'2 2.5 200 / 231017.0 4.4 2.8
2017-Jun-24 11:00N 65°30' W 168°48'2 2.5 210 / 251017.1 4.5 3.1
2017-Jun-24 10:00N 65°30' W 168°42'10 9.6 200 / 231016.9 4.3 4.3 3.3
2017-Jun-24 09:00N 65°36' W 168°24'5 5.0 190 / 271016.8 4.9 4.9 5.6
2017-Jun-24 08:00N 65°36' W 168°12'6 6.5 190 / 271017.4 5.4 5.4 8.5
2017-Jun-24 07:00N 65°42' W 168°18'2 2.5 200 / 251017.0 4.5 4.2
2017-Jun-24 06:00N 65°42' W 168°24'2 2.5 200 / 301016.6 4.5 3.7
2017-Jun-24 05:00N 65°42' W 168°30'2 2.5 200 / 281016.9 4.2 3.7
2017-Jun-24 04:00N 65°42' W 168°36'6 6.5 190 / 281017.0 4.2 3.9
2017-Jun-24 03:00N 65°48' W 168°42'2 2.5 200 / 261017.1 4.0 3.4
2017-Jun-24 02:00N 65°48' W 168°48'2 2.5 210 / 321016.1 3.9 3.1
2017-Jun-24 01:00N 65°48' W 168°54'6 6.0 200 / 261016.8 3.9 3.0
2017-Jun-24 00:00N 65°54' W 168°54'6 6.5 210 / 301016.9 5.4 3.3
2017-Jun-23 23:00N 66°00' W 169°00'6 6.0 210 / 281016.6 4.3 3.1
2017-Jun-23 22:00N 66°06' W 169°00'6 6.0 210 / 351015.5 4.2 3.2
2017-Jun-23 21:00N 66°12' W 169°00'6 6.0 200 / 301015.8 4.5 3.2
2017-Jun-23 20:00N 66°18' W 169°00'7 7.2 200 / 281015.6 4.7 4.4
2017-Jun-23 19:00N 66°18' W 168°42'10 9.6 190 / 301015.6 4.5 3.4
2017-Jun-23 18:00N 66°18' W 168°18'7 7.2 190 / 291016.6 4.5 4.2
2017-Jun-23 17:00N 66°18' W 168°00'1111.3 190 / 281017.2 4.2 3.1
2017-Jun-23 16:00N 66°24' W 167°36'7 7.2 180 / 251017.8 5.1 3.6
2017-Jun-23 15:00N 66°24' W 167°18'10 9.6 200 / 251018.5 5.4 3.3
2017-Jun-23 14:00N 66°24' W 166°54'7 7.2 200 / 261019.1 5.8 5.8 5.7
2017-Jun-23 13:00N 66°24' W 166°36'7 7.2 210 / 301019.3 6.0 6.0 6.0
2017-Jun-23 12:00N 66°24' W 166°18'9 9.4 210 / 311019.2 6.1 5.9 5.8
2017-Jun-23 11:00N 66°30' W 166°00'10 9.6 220 / 231020.0 6.2 6.2 5.5
2017-Jun-23 10:00N 66°30' W 165°36'0 0.0 200 / 241020.2 7.1 6.5 5.3
2017-Jun-23 09:00N 66°30' W 165°36'10 9.6 210 / 241020.5 7.4 6.3 5.4
2017-Jun-23 08:00N 66°30' W 166°00'7 7.2 210 / 211020.2 6.9 6.7 5.4
2017-Jun-23 07:00N 66°30' W 166°18'2 2.4 210 / 281020.0 6.9 6.9 6.0
2017-Jun-23 06:00N 66°30' W 166°24'10 9.6 210 / 231020.2 6.7 6.7 5.7
2017-Jun-23 05:00N 66°30' W 166°48'7 7.2 200 / 321019.7 7.1 7.9
2017-Jun-23 04:00N 66°30' W 167°06'5 4.8 200 / 271019.9 6.4 6.4
2017-Jun-23 03:00N 66°30' W 167°18'5 4.8 190 / 241020.4 5.7 4.3
2017-Jun-23 02:00N 66°30' W 167°30'5 4.8 190 / 231020.3 4.8 3.1
2017-Jun-23 01:00N 66°30' W 167°42'2 2.4 190 / 231020.7 5.2 3.2
2017-Jun-23 00:00N 66°30' W 167°48'7 7.2 190 / 281020.6 4.9 3.1
2017-Jun-22 23:00N 66°30' W 168°06'0 0.0 180 / 231020.8 4.3 3.5
2017-Jun-22 22:00N 66°30' W 168°06'10 9.6 190 / 271020.8 4.2 3.5
2017-Jun-22 21:00N 66°30' W 168°30'0 0.0 180 / 211021.1 4.2 3.7
2017-Jun-22 20:00N 66°30' W 168°30'0 0.0 190 / 211021.2 4.3 3.5
2017-Jun-22 19:00N 66°30' W 168°30'10 9.6 190 / 221021.3 4.4 3.8
2017-Jun-22 18:00N 66°30' W 168°54'2 2.4 190 / 261020.9 4.5 3.9
2017-Jun-22 17:00N 66°30' W 169°00'6 6.0 190 / 201021.2 4.6 4.0
2017-Jun-22 16:00N 66°36' W 169°00'6 6.0 190 / 221021.0 4.5 3.8
2017-Jun-22 15:00N 66°42' W 169°00'6 6.5 190 / 201020.8 4.3 3.1
2017-Jun-22 14:00N 66°48' W 168°54'1212.0 200 / 201020.9 4.3 3.1
2017-Jun-22 13:00N 67°00' W 168°54'0 0.0 190 / 211020.9 4.1 3.4
2017-Jun-22 12:00N 67°00' W 168°54'9 9.4 180 / 251020.3 4.2 3.7
2017-Jun-22 11:00N 67°00' W 168°30'0 0.0 200 / 251021.1 4.0 3.2
2017-Jun-22 10:00N 67°00' W 168°30'8 7.6 200 / 261021.1 3.6 3.5
2017-Jun-22 09:00N 67°06' W 168°18'7 7.0 200 / 251020.2 3.4-0.9 2.7
2017-Jun-22 08:00N 67°06' W 168°00'2 2.3 210 / 241020.6 3.5 3.0
2017-Jun-22 07:00N 67°06' W 167°54'9 9.2 200 / 241019.8 3.8 4.4
2017-Jun-22 06:00N 67°12' W 167°36'2 2.3 210 / 221019.7 5.1 5.5
2017-Jun-22 05:00N 67°12' W 167°30'7 7.0 190 / 241019.2 5.2 5.0
2017-Jun-22 04:00N 67°12' W 167°12'0 0.0 200 / 211020.0 4.6 2.7
2017-Jun-22 03:00N 67°12' W 167°12'2 2.3 210 / 221019.5 4.7 2.9
2017-Jun-22 02:00N 67°12' W 167°06'9 9.2 210 / 181019.8 4.6 2.8
2017-Jun-22 01:00N 67°18' W 166°48'2 2.3 200 / 151019.8 4.2 3.7
2017-Jun-22 00:00N 67°18' W 166°42'5 4.6 210 / 201019.4 4.9 4.5
2017-Jun-21 23:00N 67°18' W 166°30'7 6.9 200 / 211019.2 4.6 4.4
2017-Jun-21 22:00N 67°18' W 166°12'6 6.4 210 / 151019.3 5.0 4.9
2017-Jun-21 21:00N 67°24' W 166°06'7 6.9 210 / 221018.3 5.2 5.0
2017-Jun-21 20:00N 67°24' W 165°48'0 0.0 210 / 191018.4 5.1 4.7
2017-Jun-21 19:00N 67°24' W 165°48'0 0.0 220 / 181017.8 4.8 4.3
2017-Jun-21 18:00N 67°24' W 165°48'5 4.6 220 / 211017.2 4.6 4.1
2017-Jun-21 17:00N 67°24' W 165°36'9 9.1 220 / 231016.4 4.3 3.9
2017-Jun-21 16:00N 67°30' W 165°18'2 2.3 220 / 161016.0 4.6 5.8
2017-Jun-21 15:00N 67°30' W 165°12'7 6.9 220 / 201015.1 4.9 5.2
2017-Jun-21 14:00N 67°30' W 164°54'0 0.0 220 / 201014.9 5.0 5.2
2017-Jun-21 13:00N 67°30' W 164°54'1111.0 200 / 241013.4 5.9 5.6
2017-Jun-21 12:00N 67°36' W 164°30'2 2.3 180 / 191013.4 6.5 4.8
2017-Jun-21 11:00N 67°36' W 164°24'9 9.1 150 / 141013.3 6.4 4.3
2017-Jun-21 10:00N 67°36' W 164°48'1111.4 150 / 91012.7 6.3 5.3
2017-Jun-21 09:00N 67°36' W 165°18'1110.9 190 / 171011.6 6.3 5.3
2017-Jun-21 08:00N 67°42' W 165°42'9 9.1 190 / 151010.7 5.8 5.6
2017-Jun-21 07:00N 67°48' W 166°00'9 9.1 200 / 181009.8 5.0 5.6
2017-Jun-21 06:00N 67°54' W 166°18'9 9.0 190 / 171009.4 4.6 5.4
2017-Jun-21 05:00N 68°00' W 166°36'1312.8 190 / 131008.8 4.8 5.5
2017-Jun-21 04:00N 68°12' W 166°48'6 6.4 160 / 91008.0 4.2 3.8
2017-Jun-21 03:00N 68°18' W 166°54'0 0.0 180 / 121007.5 4.5 6.1
2017-Jun-21 02:00N 68°18' W 166°54'7 7.5 180 / 141007.4 4.7 6.2
2017-Jun-21 01:00N 68°12' W 167°06'4 4.5 170 / 71007.2 4.3 1.1
2017-Jun-21 00:00N 68°12' W 167°18'2 2.2 160 / 131006.9 5.2 6.3
2017-Jun-20 23:00N 68°12' W 167°24'6 6.4 160 / 151006.5 5.0 6.1
2017-Jun-20 22:00N 68°06' W 167°30'9 9.0 170 / 31006.3 5.7 5.5
2017-Jun-20 21:00N 68°00' W 167°48'2 2.2 140 / 121006.0 4.4 4.4
2017-Jun-20 20:00N 68°00' W 167°54'8 7.5 140 / 31005.7 4.5 4.1
2017-Jun-20 19:00N 67°54' W 168°06'2 2.3 130 / 81005.4 3.9 3.7
2017-Jun-20 18:00N 67°54' W 168°12'0 0.0 130 / 71005.2 4.2 3.6
2017-Jun-20 17:00N 67°54' W 168°12'9 9.1 120 / 81005.1 4.0 3.6
2017-Jun-20 16:00N 67°48' W 168°30'1110.9 120 / 91004.9 4.0 3.9
2017-Jun-20 15:00N 67°42' W 168°54'0 0.0 140 / 131004.4 3.5 3.8
2017-Jun-20 14:00N 67°42' W 168°54'9 9.1
2017-Jun-20 13:00N 67°48' W 168°36'9 9.1 150 / 111004.9 3.9 3.8
2017-Jun-20 12:00N 67°54' W 168°18'2 2.3 110 / 81005.4 3.7 3.7
2017-Jun-20 11:00N 67°54' W 168°12'9 9.1 120 / 71005.6 3.8 3.6
2017-Jun-20 10:00N 67°48' W 168°30'2 2.3 150 / 91005.5 3.8 3.8
2017-Jun-20 09:00N 67°48' W 168°36'8 7.5 120 / 71005.3 4.0 3.7
2017-Jun-20 08:00N 67°42' W 168°48'5 4.6 130 / 91005.4 3.8 3.8
2017-Jun-20 07:00N 67°42' W 169°00'6 6.0 140 / 61005.4 3.9 3.8
2017-Jun-20 06:00N 67°48' W 169°00'6 6.4 110 / 71005.5 3.8 3.9
2017-Jun-20 05:00N 67°54' W 168°54'6 6.4 100 / 101005.7 3.8 3.5
2017-Jun-20 04:00N 68°00' W 169°00'6 6.0 120 / 101006.1 3.7 3.3
2017-Jun-20 03:00N 68°06' W 169°00'1212.0 090 / 141006.3 3.8 3.4
2017-Jun-20 02:00N 68°18' W 169°00'0 0.0 100 / 121007.1 4.3 3.6
2017-Jun-20 01:00N 68°18' W 169°00'1212.0 090 / 101007.5 4.3 3.7
2017-Jun-20 00:00N 68°30' W 169°00'12 6.0 080 / 131008.0 4.4 5.2
2017-Jun-19 22:00N 68°42' W 169°00'6 6.4 090 / 151008.5 3.9 4.9
2017-Jun-19 21:00N 68°48' W 168°54'6 6.0 100 / 141008.9 3.9 3.9 5.2
2017-Jun-19 20:00N 68°54' W 168°54'6 6.0 090 / 121009.3 3.4 5.1
2017-Jun-19 19:00N 69°00' W 168°54'4 4.3 100 / 21009.4 4.2 3.9 6.2
2017-Jun-19 18:00N 69°00' W 168°42'6 6.5 110 / 41009.7 2.3 5.3
2017-Jun-19 17:00N 69°00' W 168°24'2 2.2 130 / 41010.0 2.1 5.3
2017-Jun-19 16:00N 69°00' W 168°18'9 8.6 130 / 81009.9 2.2 4.4
2017-Jun-19 15:00N 69°00' W 167°54'0 0.0 110 / 71009.9 3.1 4.7
2017-Jun-19 14:00N 69°00' W 167°54'9 8.6 080 / 111010.2 2.9 4.8
2017-Jun-19 13:00N 69°00' W 167°30'2 2.2 050 / 51010.4 2.5 2.6
2017-Jun-19 12:00N 69°00' W 167°24'6 6.5 060 / 71010.7 2.7 2.3
2017-Jun-19 11:00N 69°00' W 167°06'7 7.4 050 / 81010.9 2.6 2.5
2017-Jun-19 10:00N 68°54' W 166°54'1110.8 050 / 61011.0 2.7 3.1
2017-Jun-19 09:00N 68°54' W 166°24'0 0.0 050 / 121010.8 2.7 2.9
2017-Jun-19 08:00N 68°54' W 166°24'6 6.4 050 / 71011.1 2.5 2.9
2017-Jun-19 07:00N 68°48' W 166°30'7 6.5 090 / 31011.1 2.5 2.1
2017-Jun-19 06:00N 68°48' W 166°48'0 0.0 160 / 31011.0 2.6 3.3
2017-Jun-19 05:00N 68°48' W 166°48'9 8.8 170 / 51011.1 2.8 3.6
2017-Jun-19 04:00N 68°54' W 166°30'0 0.0 100 / 61011.3 2.7 2.8
2017-Jun-19 03:00N 68°54' W 166°30'2 2.2 110 / 101011.2 2.7 1.7
2017-Jun-19 02:00N 68°54' W 166°24'0 0.0 100 / 101011.1 2.7 2.6 2.8
2017-Jun-19 01:00N 68°54' W 166°24'4 4.3 060 / 111011.1 2.5 2.4 2.0
2017-Jun-19 00:00N 68°54' W 166°36'9 8.8 070 / 81011.2 2.1 3.4
2017-Jun-18 23:00N 69°00' W 166°54'6 6.0 060 / 61011.3 1.8 0.9 2.7
2017-Jun-18 22:00N 68°54' W 166°54'0 0.0 030 / 51011.3 1.8 0.8 2.5
2017-Jun-18 21:00N 68°54' W 166°54'0 0.0 050 / 51010.9 1.8 0.8 2.5
2017-Jun-18 20:00N 68°54' W 166°54'0 0.0 050 / 51010.7 1.8 0.5 2.5
2017-Jun-18 19:00N 68°54' W 166°54'0 0.0 030 / 71010.4 1.6 0.2 2.7
2017-Jun-18 18:00N 68°54' W 166°54'6 6.0 030 / 71010.1 1.6 0.5 2.6
2017-Jun-18 17:00N 69°00' W 166°54'9 8.8 060 / 71010.0 1.4 1.4 2.8
2017-Jun-18 16:00N 69°06' W 166°36'0 0.0 030 / 71009.9 1.0 2.1
2017-Jun-18 15:00N 69°06' W 166°36'1212.2 040 / 81009.8 0.9 0.9 3.0
2017-Jun-18 14:00N 69°18' W 166°42'0 0.0 050 / 81009.8 0.9 0.4 1.7
2017-Jun-18 13:00N 69°18' W 166°42'6 6.4 050 / 81009.8 1.1 1.9
2017-Jun-18 12:00N 69°24' W 166°48'1212.2 020 / 101009.7 1.1 3.4
2017-Jun-18 11:00N 69°36' W 166°54'6 6.4 050 / 111009.8 1.3 4.5
2017-Jun-18 10:00N 69°42' W 167°00'6 6.3 040 / 121009.9 1.4 5.0
2017-Jun-18 09:00N 69°48' W 167°06'6 6.3 040 / 121010.0 1.3 4.2
2017-Jun-18 08:00N 69°42' W 167°12'6 6.4 020 / 141009.9 1.4 4.3
2017-Jun-18 07:00N 69°36' W 167°18'1312.7 020 / 151009.9 1.6 4.5
2017-Jun-18 06:00N 69°24' W 167°30'7 7.3 010 / 141009.8 1.7 3.5
2017-Jun-18 05:00N 69°18' W 167°42'1212.2 020 / 151009.8 2.1 2.1 4.3
2017-Jun-18 04:00N 69°06' W 167°48'6 6.4 020 / 141009.9 2.4 2.3 4.7
2017-Jun-18 03:00N 69°00' W 167°54'2 2.2 020 / 161009.9 2.3 5.1
2017-Jun-18 02:00N 69°00' W 168°00'9 8.6 010 / 181009.5 2.2 2.2 5.2
2017-Jun-18 01:00N 69°00' W 168°24'9 8.8 010 / 211009.6 2.7 2.5 5.5
2017-Jun-18 00:00N 69°06' W 168°42'4 4.3 010 / 211009.8 2.2 6.0
2017-Jun-17 23:00N 69°06' W 168°54'6 6.0 010 / 171010.0 2.4 2.4 6.1
2017-Jun-17 22:00N 69°00' W 168°54'0 0.0 010 / 191009.8 2.3 6.2
2017-Jun-17 21:00N 69°00' W 168°54'0 0.0 020 / 191009.6 2.0 6.2
2017-Jun-17 20:00N 69°00' W 168°54'0 0.0 030 / 231009.1 2.2 6.3
2017-Jun-17 19:00N 69°00' W 168°54'0 0.0 030 / 231008.9 2.2 2.1 6.3
2017-Jun-17 18:00N 69°00' W 168°54'0 0.0 030 / 211008.5 1.8 6.3
2017-Jun-17 17:00N 69°00' W 168°54'0 0.0 040 / 191008.3 1.7 5.9
2017-Jun-17 16:00N 69°00' W 168°54'0 0.0 050 / 221008.0 1.9 5.6
2017-Jun-17 15:00N 69°00' W 168°54'0 0.0 040 / 231007.8 1.9 5.7
2017-Jun-17 14:00N 69°00' W 168°54'4 4.3 040 / 221007.5 1.7 5.7
2017-Jun-17 13:00N 69°00' W 168°42'7 7.4 040 / 271006.2 2.0 6.4
2017-Jun-17 12:00N 68°54' W 168°30'7 7.4 060 / 281005.7 2.0 6.6
2017-Jun-17 11:00N 68°48' W 168°18'2 2.2 040 / 281004.8 1.8 6.9
2017-Jun-17 10:00N 68°48' W 168°12'7 7.4 040 / 281004.3 1.5 6.4
2017-Jun-17 09:00N 68°42' W 168°00'7 7.4 040 / 271003.5 1.6 5.0
2017-Jun-17 08:00N 68°36' W 167°48'7 7.4 030 / 231002.9 2.5 6.6
2017-Jun-17 07:00N 68°30' W 167°36'2 2.2 030 / 261001.7 3.3 3.3 6.7
2017-Jun-17 06:00N 68°30' W 167°30'9 8.9 040 / 291000.4 4.0 4.0 5.6
2017-Jun-17 05:00N 68°24' W 167°12'6 6.4 030 / 25999.7 4.5 4.4 5.5
2017-Jun-17 04:00N 68°18' W 167°06'2 2.2 030 / 13999.8 4.6 4.5 6.1
2017-Jun-17 03:00N 68°18' W 167°00'1110.7 330 / 14999.6 5.3 5.2 6.1
2017-Jun-17 02:00N 68°12' W 167°24'0 0.0 320 / 161000.1 5.0 5.0 6.8
2017-Jun-17 01:00N 68°12' W 167°24'6 6.4 310 / 131000.6 4.4 6.4
2017-Jun-17 00:00N 68°06' W 167°30'6 6.4 290 / 111000.8 6.0 5.4
2017-Jun-16 23:00N 68°12' W 167°24'2 2.2 290 / 181000.6 5.6 5.2
2017-Jun-16 22:00N 68°12' W 167°18'0 0.0 290 / 141000.4 5.6 7.2
2017-Jun-16 21:00N 68°12' W 167°18'0 0.0 300 / 141000.7 5.0 5.0
2017-Jun-16 20:00N 68°12' W 167°18'0 0.0 300 / 151000.5 5.1 6.7
2017-Jun-16 19:00N 68°12' W 167°18'0 0.0 280 / 111000.5 5.8 5.9
2017-Jun-16 18:00N 68°12' W 167°18'   320 / 61000.6 6.6 5.9

Dump ship's entire track history